sensor_id;sensor_type;location;lat;lon;timestamp;temperature;humidity
15543;DHT22;7873;52.230;12.856;2024-03-08T00:00:58;25.60;35.60
15543;DHT22;7873;52.230;12.856;2024-03-08T00:03:25;25.60;35.70
15543;DHT22;7873;52.230;12.856;2024-03-08T00:05:52;25.60;35.80
15543;DHT22;7873;52.230;12.856;2024-03-08T00:08:18;25.50;35.80
15543;DHT22;7873;52.230;12.856;2024-03-08T00:10:45;25.50;35.80
15543;DHT22;7873;52.230;12.856;2024-03-08T00:13:11;25.50;35.90
15543;DHT22;7873;52.230;12.856;2024-03-08T00:15:39;25.50;35.90
15543;DHT22;7873;52.230;12.856;2024-03-08T00:18:06;25.50;35.90
15543;DHT22;7873;52.230;12.856;2024-03-08T00:20:33;25.40;35.90
15543;DHT22;7873;52.230;12.856;2024-03-08T00:22:59;25.40;36.00
15543;DHT22;7873;52.230;12.856;2024-03-08T00:25:26;25.40;36.10
15543;DHT22;7873;52.230;12.856;2024-03-08T00:27:52;25.40;36.10
15543;DHT22;7873;52.230;12.856;2024-03-08T00:30:21;25.30;36.10
15543;DHT22;7873;52.230;12.856;2024-03-08T00:32:49;25.30;36.10
15543;DHT22;7873;52.230;12.856;2024-03-08T00:35:15;25.30;36.10
15543;DHT22;7873;52.230;12.856;2024-03-08T00:37:43;25.20;36.10
15543;DHT22;7873;52.230;12.856;2024-03-08T00:40:12;25.30;36.30
15543;DHT22;7873;52.230;12.856;2024-03-08T00:42:39;25.20;36.10
15543;DHT22;7873;52.230;12.856;2024-03-08T00:45:06;25.20;36.20
15543;DHT22;7873;52.230;12.856;2024-03-08T00:47:35;25.20;36.30
15543;DHT22;7873;52.230;12.856;2024-03-08T00:50:03;25.20;36.30
15543;DHT22;7873;52.230;12.856;2024-03-08T00:52:30;25.10;36.40
15543;DHT22;7873;52.230;12.856;2024-03-08T00:54:57;25.10;36.40
15543;DHT22;7873;52.230;12.856;2024-03-08T00:57:23;25.10;36.40
15543;DHT22;7873;52.230;12.856;2024-03-08T00:59:50;25.00;36.40
15543;DHT22;7873;52.230;12.856;2024-03-08T01:02:18;25.00;36.40
15543;DHT22;7873;52.230;12.856;2024-03-08T01:04:44;25.00;36.50
15543;DHT22;7873;52.230;12.856;2024-03-08T01:07:13;25.00;36.60
15543;DHT22;7873;52.230;12.856;2024-03-08T01:09:40;25.00;36.60
15543;DHT22;7873;52.230;12.856;2024-03-08T01:12:07;24.90;36.60
15543;DHT22;7873;52.230;12.856;2024-03-08T01:14:33;24.90;36.60
15543;DHT22;7873;52.230;12.856;2024-03-08T01:17:00;24.90;36.70
15543;DHT22;7873;52.230;12.856;2024-03-08T01:19:26;24.80;36.60
15543;DHT22;7873;52.230;12.856;2024-03-08T01:21:53;24.80;36.70
15543;DHT22;7873;52.230;12.856;2024-03-08T01:24:22;24.80;36.80
15543;DHT22;7873;52.230;12.856;2024-03-08T01:26:48;24.80;36.80
15543;DHT22;7873;52.230;12.856;2024-03-08T01:29:15;24.80;36.80
15543;DHT22;7873;52.230;12.856;2024-03-08T01:31:41;24.80;36.80
15543;DHT22;7873;52.230;12.856;2024-03-08T01:34:08;24.70;36.70
15543;DHT22;7873;52.230;12.856;2024-03-08T01:36:35;24.70;36.70
15543;DHT22;7873;52.230;12.856;2024-03-08T01:39:02;24.70;36.90
15543;DHT22;7873;52.230;12.856;2024-03-08T01:41:34;24.70;36.90
15543;DHT22;7873;52.230;12.856;2024-03-08T01:44:01;24.70;36.90
15543;DHT22;7873;52.230;12.856;2024-03-08T01:46:29;24.60;36.90
15543;DHT22;7873;52.230;12.856;2024-03-08T01:48:56;24.60;36.90
15543;DHT22;7873;52.230;12.856;2024-03-08T01:51:22;24.60;36.90
15543;DHT22;7873;52.230;12.856;2024-03-08T01:53:49;24.60;37.00
15543;DHT22;7873;52.230;12.856;2024-03-08T01:56:16;24.50;36.90
15543;DHT22;7873;52.230;12.856;2024-03-08T01:58:45;24.60;37.00
15543;DHT22;7873;52.230;12.856;2024-03-08T02:01:12;24.60;37.00
15543;DHT22;7873;52.230;12.856;2024-03-08T02:03:39;24.50;37.00
15543;DHT22;7873;52.230;12.856;2024-03-08T02:06:08;24.50;37.00
15543;DHT22;7873;52.230;12.856;2024-03-08T02:08:35;24.50;37.00
15543;DHT22;7873;52.230;12.856;2024-03-08T02:11:02;24.50;37.00
15543;DHT22;7873;52.230;12.856;2024-03-08T02:13:30;24.50;37.00
15543;DHT22;7873;52.230;12.856;2024-03-08T02:15:59;24.40;37.10
15543;DHT22;7873;52.230;12.856;2024-03-08T02:18:27;24.50;37.10
15543;DHT22;7873;52.230;12.856;2024-03-08T02:20:55;24.40;37.10
15543;DHT22;7873;52.230;12.856;2024-03-08T02:23:22;24.40;37.10
15543;DHT22;7873;52.230;12.856;2024-03-08T02:25:50;24.40;37.00
15543;DHT22;7873;52.230;12.856;2024-03-08T02:28:17;24.40;37.00
15543;DHT22;7873;52.230;12.856;2024-03-08T02:30:44;24.40;37.10
15543;DHT22;7873;52.230;12.856;2024-03-08T02:33:13;24.30;37.80
15543;DHT22;7873;52.230;12.856;2024-03-08T02:35:41;24.30;37.10
15543;DHT22;7873;52.230;12.856;2024-03-08T02:38:12;24.30;37.80
15543;DHT22;7873;52.230;12.856;2024-03-08T02:40:38;24.30;36.90
15543;DHT22;7873;52.230;12.856;2024-03-08T02:43:05;24.40;37.10
15543;DHT22;7873;52.230;12.856;2024-03-08T02:45:32;24.30;37.60
15543;DHT22;7873;52.230;12.856;2024-03-08T02:47:58;24.40;36.90
15543;DHT22;7873;52.230;12.856;2024-03-08T02:50:25;24.30;36.90
15543;DHT22;7873;52.230;12.856;2024-03-08T02:52:51;24.30;37.70
15543;DHT22;7873;52.230;12.856;2024-03-08T02:55:19;24.30;36.90
15543;DHT22;7873;52.230;12.856;2024-03-08T02:57:46;24.30;36.90
15543;DHT22;7873;52.230;12.856;2024-03-08T03:00:13;24.30;36.90
15543;DHT22;7873;52.230;12.856;2024-03-08T03:02:41;24.30;36.90
15543;DHT22;7873;52.230;12.856;2024-03-08T03:05:08;24.30;36.80
15543;DHT22;7873;52.230;12.856;2024-03-08T03:07:35;24.30;36.80
15543;DHT22;7873;52.230;12.856;2024-03-08T03:10:02;24.30;36.80
15543;DHT22;7873;52.230;12.856;2024-03-08T03:12:31;24.30;36.80
15543;DHT22;7873;52.230;12.856;2024-03-08T03:14:59;24.20;36.80
15543;DHT22;7873;52.230;12.856;2024-03-08T03:17:25;24.20;36.80
15543;DHT22;7873;52.230;12.856;2024-03-08T03:19:52;24.20;36.90
15543;DHT22;7873;52.230;12.856;2024-03-08T03:22:19;24.20;36.90
15543;DHT22;7873;52.230;12.856;2024-03-08T03:24:46;24.20;36.80
15543;DHT22;7873;52.230;12.856;2024-03-08T03:27:14;24.30;36.80
15543;DHT22;7873;52.230;12.856;2024-03-08T03:29:42;24.20;36.80
15543;DHT22;7873;52.230;12.856;2024-03-08T03:32:10;24.20;37.50
15543;DHT22;7873;52.230;12.856;2024-03-08T03:34:37;24.20;36.80
15543;DHT22;7873;52.230;12.856;2024-03-08T03:37:04;24.10;36.90
15543;DHT22;7873;52.230;12.856;2024-03-08T03:39:32;24.10;37.00
15543;DHT22;7873;52.230;12.856;2024-03-08T03:41:59;24.10;37.00
15543;DHT22;7873;52.230;12.856;2024-03-08T03:44:27;24.10;36.90
15543;DHT22;7873;52.230;12.856;2024-03-08T03:46:55;24.10;36.90
15543;DHT22;7873;52.230;12.856;2024-03-08T03:49:21;24.10;36.90
15543;DHT22;7873;52.230;12.856;2024-03-08T03:51:49;24.00;36.90
15543;DHT22;7873;52.230;12.856;2024-03-08T03:54:15;24.00;36.90
15543;DHT22;7873;52.230;12.856;2024-03-08T03:56:41;24.00;37.00
15543;DHT22;7873;52.230;12.856;2024-03-08T03:59:08;24.00;37.00
15543;DHT22;7873;52.230;12.856;2024-03-08T04:01:34;24.00;36.90
15543;DHT22;7873;52.230;12.856;2024-03-08T04:04:02;24.00;36.90
15543;DHT22;7873;52.230;12.856;2024-03-08T04:06:30;24.00;37.00
15543;DHT22;7873;52.230;12.856;2024-03-08T04:08:56;24.00;37.00
15543;DHT22;7873;52.230;12.856;2024-03-08T04:11:23;24.00;36.90
15543;DHT22;7873;52.230;12.856;2024-03-08T04:13:50;23.90;36.90
15543;DHT22;7873;52.230;12.856;2024-03-08T04:16:17;24.00;36.90
15543;DHT22;7873;52.230;12.856;2024-03-08T04:18:44;23.90;36.90
15543;DHT22;7873;52.230;12.856;2024-03-08T04:21:12;23.90;37.00
15543;DHT22;7873;52.230;12.856;2024-03-08T04:23:38;23.90;36.90
15543;DHT22;7873;52.230;12.856;2024-03-08T04:26:05;23.90;37.00
15543;DHT22;7873;52.230;12.856;2024-03-08T04:28:32;23.90;37.00
15543;DHT22;7873;52.230;12.856;2024-03-08T04:30:58;23.90;37.00
15543;DHT22;7873;52.230;12.856;2024-03-08T04:33:25;23.80;37.00
15543;DHT22;7873;52.230;12.856;2024-03-08T04:35:53;23.90;37.10
15543;DHT22;7873;52.230;12.856;2024-03-08T04:38:21;23.80;37.10
15543;DHT22;7873;52.230;12.856;2024-03-08T04:40:47;23.80;37.10
15543;DHT22;7873;52.230;12.856;2024-03-08T04:43:14;23.80;37.10
15543;DHT22;7873;52.230;12.856;2024-03-08T04:45:41;23.70;37.10
15543;DHT22;7873;52.230;12.856;2024-03-08T04:48:09;23.70;37.00
15543;DHT22;7873;52.230;12.856;2024-03-08T04:50:36;23.80;37.10
15543;DHT22;7873;52.230;12.856;2024-03-08T04:53:03;23.70;37.00
15543;DHT22;7873;52.230;12.856;2024-03-08T04:55:34;23.80;36.90
15543;DHT22;7873;52.230;12.856;2024-03-08T04:58:02;23.90;37.00
15543;DHT22;7873;52.230;12.856;2024-03-08T05:00:31;23.90;36.70
15543;DHT22;7873;52.230;12.856;2024-03-08T05:02:57;24.00;36.70
15543;DHT22;7873;52.230;12.856;2024-03-08T05:05:24;24.00;36.70
15543;DHT22;7873;52.230;12.856;2024-03-08T05:07:51;24.00;36.60
15543;DHT22;7873;52.230;12.856;2024-03-08T05:10:18;24.00;36.70
15543;DHT22;7873;52.230;12.856;2024-03-08T05:12:46;24.00;36.70
15543;DHT22;7873;52.230;12.856;2024-03-08T05:15:13;24.00;36.60
15543;DHT22;7873;52.230;12.856;2024-03-08T05:17:39;24.00;36.70
15543;DHT22;7873;52.230;12.856;2024-03-08T05:20:07;24.00;36.60
15543;DHT22;7873;52.230;12.856;2024-03-08T05:22:37;24.00;36.70
15543;DHT22;7873;52.230;12.856;2024-03-08T05:25:05;23.90;35.70
15543;DHT22;7873;52.230;12.856;2024-03-08T05:27:33;23.90;36.00
15543;DHT22;7873;52.230;12.856;2024-03-08T05:30:01;23.80;34.40
15543;DHT22;7873;52.230;12.856;2024-03-08T05:32:29;23.60;33.00
15543;DHT22;7873;52.230;12.856;2024-03-08T05:34:55;23.40;34.30
15543;DHT22;7873;52.230;12.856;2024-03-08T05:37:22;23.40;34.40
15543;DHT22;7873;52.230;12.856;2024-03-08T05:39:48;23.50;33.70
15543;DHT22;7873;52.230;12.856;2024-03-08T05:42:15;23.50;33.80
15543;DHT22;7873;52.230;12.856;2024-03-08T05:44:41;23.60;33.70
15543;DHT22;7873;52.230;12.856;2024-03-08T05:47:10;23.50;33.40
15543;DHT22;7873;52.230;12.856;2024-03-08T05:49:36;23.50;33.90
15543;DHT22;7873;52.230;12.856;2024-03-08T05:52:04;23.50;33.30
15543;DHT22;7873;52.230;12.856;2024-03-08T05:54:30;23.50;33.10
15543;DHT22;7873;52.230;12.856;2024-03-08T05:56:58;23.60;33.00
15543;DHT22;7873;52.230;12.856;2024-03-08T05:59:24;23.50;33.00
15543;DHT22;7873;52.230;12.856;2024-03-08T06:01:52;23.60;33.10
15543;DHT22;7873;52.230;12.856;2024-03-08T06:04:19;23.70;33.00
15543;DHT22;7873;52.230;12.856;2024-03-08T06:06:46;23.80;33.70
15543;DHT22;7873;52.230;12.856;2024-03-08T06:09:12;23.80;30.00
15543;DHT22;7873;52.230;12.856;2024-03-08T06:11:41;23.80;28.80
15543;DHT22;7873;52.230;12.856;2024-03-08T06:14:07;23.60;29.10
15543;DHT22;7873;52.230;12.856;2024-03-08T06:16:34;23.70;29.60
15543;DHT22;7873;52.230;12.856;2024-03-08T06:19:01;23.70;30.40
15543;DHT22;7873;52.230;12.856;2024-03-08T06:21:29;23.80;30.00
15543;DHT22;7873;52.230;12.856;2024-03-08T06:23:56;23.90;30.00
15543;DHT22;7873;52.230;12.856;2024-03-08T06:26:23;24.00;30.00
15543;DHT22;7873;52.230;12.856;2024-03-08T06:28:50;24.10;30.00
15543;DHT22;7873;52.230;12.856;2024-03-08T06:31:17;24.20;30.00
15543;DHT22;7873;52.230;12.856;2024-03-08T06:33:43;24.20;29.90
15543;DHT22;7873;52.230;12.856;2024-03-08T06:36:10;24.30;30.40
15543;DHT22;7873;52.230;12.856;2024-03-08T06:38:38;24.40;30.70
15543;DHT22;7873;52.230;12.856;2024-03-08T06:41:07;24.60;27.00
15543;DHT22;7873;52.230;12.856;2024-03-08T06:43:34;24.30;25.20
15543;DHT22;7873;52.230;12.856;2024-03-08T06:46:01;23.90;25.50
15543;DHT22;7873;52.230;12.856;2024-03-08T06:48:29;23.80;25.80
15543;DHT22;7873;52.230;12.856;2024-03-08T06:50:55;23.80;26.60
15543;DHT22;7873;52.230;12.856;2024-03-08T06:53:22;23.90;27.50
15543;DHT22;7873;52.230;12.856;2024-03-08T06:55:51;24.10;28.40
15543;DHT22;7873;52.230;12.856;2024-03-08T06:58:18;24.20;28.80
15543;DHT22;7873;52.230;12.856;2024-03-08T07:00:44;24.00;27.20
15543;DHT22;7873;52.230;12.856;2024-03-08T07:03:12;24.10;29.00
15543;DHT22;7873;52.230;12.856;2024-03-08T07:05:42;24.40;29.00
15543;DHT22;7873;52.230;12.856;2024-03-08T07:08:09;24.60;29.10
15543;DHT22;7873;52.230;12.856;2024-03-08T07:10:37;24.90;29.00
15543;DHT22;7873;52.230;12.856;2024-03-08T07:13:08;25.10;28.90
15543;DHT22;7873;52.230;12.856;2024-03-08T07:15:35;25.40;28.80
15543;DHT22;7873;52.230;12.856;2024-03-08T07:18:01;25.60;28.50
15543;DHT22;7873;52.230;12.856;2024-03-08T07:20:29;25.80;28.50
15543;DHT22;7873;52.230;12.856;2024-03-08T07:22:55;26.00;28.20
15543;DHT22;7873;52.230;12.856;2024-03-08T07:25:22;26.30;28.80
15543;DHT22;7873;52.230;12.856;2024-03-08T07:27:49;26.40;28.00
15543;DHT22;7873;52.230;12.856;2024-03-08T07:30:19;26.60;28.50
15543;DHT22;7873;52.230;12.856;2024-03-08T07:33:04;26.80;27.90
15543;DHT22;7873;52.230;12.856;2024-03-08T07:35:32;26.90;27.80
15543;DHT22;7873;52.230;12.856;2024-03-08T07:37:59;27.00;27.80
15543;DHT22;7873;52.230;12.856;2024-03-08T07:40:25;27.10;27.80
15543;DHT22;7873;52.230;12.856;2024-03-08T07:42:52;27.20;27.80
15543;DHT22;7873;52.230;12.856;2024-03-08T07:45:20;27.20;27.70
15543;DHT22;7873;52.230;12.856;2024-03-08T07:47:47;27.20;28.40
15543;DHT22;7873;52.230;12.856;2024-03-08T07:50:14;27.20;27.80
15543;DHT22;7873;52.230;12.856;2024-03-08T07:52:41;27.20;28.20
15543;DHT22;7873;52.230;12.856;2024-03-08T07:55:08;27.30;28.10
15543;DHT22;7873;52.230;12.856;2024-03-08T07:57:35;27.30;28.00
15543;DHT22;7873;52.230;12.856;2024-03-08T08:00:03;27.40;28.00
15543;DHT22;7873;52.230;12.856;2024-03-08T08:02:34;27.50;27.90
15543;DHT22;7873;52.230;12.856;2024-03-08T08:05:00;27.50;27.90
15543;DHT22;7873;52.230;12.856;2024-03-08T08:07:27;27.50;28.00
15543;DHT22;7873;52.230;12.856;2024-03-08T08:09:53;27.50;28.00
15543;DHT22;7873;52.230;12.856;2024-03-08T08:12:20;27.50;28.00
15543;DHT22;7873;52.230;12.856;2024-03-08T08:14:46;27.60;28.10
15543;DHT22;7873;52.230;12.856;2024-03-08T08:17:13;27.60;28.00
15543;DHT22;7873;52.230;12.856;2024-03-08T08:19:41;27.60;28.00
15543;DHT22;7873;52.230;12.856;2024-03-08T08:22:08;27.60;28.00
15543;DHT22;7873;52.230;12.856;2024-03-08T08:24:34;27.60;28.10
15543;DHT22;7873;52.230;12.856;2024-03-08T08:27:02;27.70;28.00
15543;DHT22;7873;52.230;12.856;2024-03-08T08:29:28;27.70;28.10
15543;DHT22;7873;52.230;12.856;2024-03-08T08:31:57;27.60;28.10
15543;DHT22;7873;52.230;12.856;2024-03-08T08:34:24;27.60;28.10
15543;DHT22;7873;52.230;12.856;2024-03-08T08:36:53;27.60;28.20
15543;DHT22;7873;52.230;12.856;2024-03-08T08:39:19;27.50;28.20
15543;DHT22;7873;52.230;12.856;2024-03-08T08:41:48;27.50;28.30
15543;DHT22;7873;52.230;12.856;2024-03-08T08:44:14;27.50;28.40
15543;DHT22;7873;52.230;12.856;2024-03-08T08:46:41;27.50;28.40
15543;DHT22;7873;52.230;12.856;2024-03-08T08:49:08;27.50;28.40
15543;DHT22;7873;52.230;12.856;2024-03-08T08:51:35;27.50;28.40
15543;DHT22;7873;52.230;12.856;2024-03-08T08:54:03;27.50;28.20
15543;DHT22;7873;52.230;12.856;2024-03-08T08:56:31;27.50;28.40
15543;DHT22;7873;52.230;12.856;2024-03-08T08:58:58;27.50;28.50
15543;DHT22;7873;52.230;12.856;2024-03-08T09:01:24;27.40;28.70
15543;DHT22;7873;52.230;12.856;2024-03-08T09:03:51;27.40;28.50
15543;DHT22;7873;52.230;12.856;2024-03-08T09:06:19;27.40;28.80
15543;DHT22;7873;52.230;12.856;2024-03-08T09:08:46;27.40;28.70
15543;DHT22;7873;52.230;12.856;2024-03-08T09:11:13;27.30;28.90
15543;DHT22;7873;52.230;12.856;2024-03-08T09:13:40;27.30;28.90
15543;DHT22;7873;52.230;12.856;2024-03-08T09:16:07;27.30;29.00
15543;DHT22;7873;52.230;12.856;2024-03-08T09:18:35;27.20;29.00
15543;DHT22;7873;52.230;12.856;2024-03-08T09:21:02;27.10;28.90
15543;DHT22;7873;52.230;12.856;2024-03-08T09:23:30;27.10;28.90
15543;DHT22;7873;52.230;12.856;2024-03-08T09:25:57;27.00;29.10
15543;DHT22;7873;52.230;12.856;2024-03-08T09:28:25;27.00;29.10
15543;DHT22;7873;52.230;12.856;2024-03-08T09:30:52;26.90;29.10
15543;DHT22;7873;52.230;12.856;2024-03-08T09:33:20;26.90;29.30
15543;DHT22;7873;52.230;12.856;2024-03-08T09:35:47;26.80;29.50
15543;DHT22;7873;52.230;12.856;2024-03-08T09:38:14;26.80;29.30
15543;DHT22;7873;52.230;12.856;2024-03-08T09:40:40;26.70;29.60
15543;DHT22;7873;52.230;12.856;2024-03-08T09:43:07;26.70;29.30
15543;DHT22;7873;52.230;12.856;2024-03-08T09:45:38;26.70;29.50
15543;DHT22;7873;52.230;12.856;2024-03-08T09:48:07;26.70;29.50
15543;DHT22;7873;52.230;12.856;2024-03-08T09:50:37;26.70;29.30
15543;DHT22;7873;52.230;12.856;2024-03-08T09:53:04;26.70;29.60
15543;DHT22;7873;52.230;12.856;2024-03-08T09:55:34;26.60;29.10
15543;DHT22;7873;52.230;12.856;2024-03-08T09:58:02;26.50;29.10
15543;DHT22;7873;52.230;12.856;2024-03-08T10:01:03;26.60;28.60
15543;DHT22;7873;52.230;12.856;2024-03-08T10:03:31;26.70;28.20
15543;DHT22;7873;52.230;12.856;2024-03-08T10:05:58;26.70;28.00
15543;DHT22;7873;52.230;12.856;2024-03-08T10:08:25;26.70;28.30
15543;DHT22;7873;52.230;12.856;2024-03-08T10:10:52;26.80;27.70
15543;DHT22;7873;52.230;12.856;2024-03-08T10:13:18;26.90;27.40
15543;DHT22;7873;52.230;12.856;2024-03-08T10:15:45;26.90;27.60
15543;DHT22;7873;52.230;12.856;2024-03-08T10:18:13;26.90;27.30
15543;DHT22;7873;52.230;12.856;2024-03-08T10:20:40;26.90;28.10
15543;DHT22;7873;52.230;12.856;2024-03-08T10:23:06;26.90;28.80
15543;DHT22;7873;52.230;12.856;2024-03-08T10:25:35;26.90;29.50
15543;DHT22;7873;52.230;12.856;2024-03-08T10:28:03;26.90;29.40
15543;DHT22;7873;52.230;12.856;2024-03-08T10:30:30;26.90;29.10
15543;DHT22;7873;52.230;12.856;2024-03-08T10:32:57;27.00;29.50
15543;DHT22;7873;52.230;12.856;2024-03-08T10:35:25;27.00;30.10
15543;DHT22;7873;52.230;12.856;2024-03-08T10:37:52;26.70;32.10
15543;DHT22;7873;52.230;12.856;2024-03-08T10:40:24;26.70;30.20
15543;DHT22;7873;52.230;12.856;2024-03-08T10:42:52;26.70;31.20
15543;DHT22;7873;52.230;12.856;2024-03-08T10:45:23;26.60;28.70
15543;DHT22;7873;52.230;12.856;2024-03-08T10:48:04;25.70;25.10
15543;DHT22;7873;52.230;12.856;2024-03-08T10:50:54;25.20;25.90
15543;DHT22;7873;52.230;12.856;2024-03-08T10:53:22;25.30;27.90
15543;DHT22;7873;52.230;12.856;2024-03-08T10:55:50;25.50;27.90
15543;DHT22;7873;52.230;12.856;2024-03-08T10:58:19;25.50;28.70
15543;DHT22;7873;52.230;12.856;2024-03-08T11:00:47;25.50;28.30
15543;DHT22;7873;52.230;12.856;2024-03-08T11:06:22;25.40;29.20
15543;DHT22;7873;52.230;12.856;2024-03-08T11:08:50;25.50;29.00
15543;DHT22;7873;52.230;12.856;2024-03-08T11:11:26;25.40;29.00
15543;DHT22;7873;52.230;12.856;2024-03-08T11:13:55;25.40;29.20
15543;DHT22;7873;52.230;12.856;2024-03-08T11:16:37;25.40;30.00
15543;DHT22;7873;52.230;12.856;2024-03-08T11:19:22;25.40;30.00
15543;DHT22;7873;52.230;12.856;2024-03-08T11:21:58;25.30;29.60
15543;DHT22;7873;52.230;12.856;2024-03-08T11:24:25;25.30;29.60
15543;DHT22;7873;52.230;12.856;2024-03-08T11:26:54;25.30;29.70
15543;DHT22;7873;52.230;12.856;2024-03-08T11:29:32;25.30;29.80
15543;DHT22;7873;52.230;12.856;2024-03-08T11:32:04;25.20;29.90
15543;DHT22;7873;52.230;12.856;2024-03-08T11:34:31;25.20;30.00
15543;DHT22;7873;52.230;12.856;2024-03-08T11:36:59;25.20;30.00
15543;DHT22;7873;52.230;12.856;2024-03-08T11:39:26;25.20;30.10
15543;DHT22;7873;52.230;12.856;2024-03-08T11:41:53;25.20;30.10
15543;DHT22;7873;52.230;12.856;2024-03-08T11:44:20;25.20;30.10
15543;DHT22;7873;52.230;12.856;2024-03-08T11:46:47;25.10;30.20
15543;DHT22;7873;52.230;12.856;2024-03-08T11:49:13;25.10;30.40
15543;DHT22;7873;52.230;12.856;2024-03-08T11:51:41;25.00;30.40
15543;DHT22;7873;52.230;12.856;2024-03-08T11:54:11;25.10;30.50
15543;DHT22;7873;52.230;12.856;2024-03-08T11:56:38;25.00;30.60
15543;DHT22;7873;52.230;12.856;2024-03-08T11:59:10;25.00;30.80
15543;DHT22;7873;52.230;12.856;2024-03-08T12:01:38;24.90;30.90
15543;DHT22;7873;52.230;12.856;2024-03-08T12:04:04;24.90;31.00
15543;DHT22;7873;52.230;12.856;2024-03-08T12:06:36;24.80;31.10
15543;DHT22;7873;52.230;12.856;2024-03-08T12:09:07;24.80;31.20
15543;DHT22;7873;52.230;12.856;2024-03-08T12:11:37;24.80;31.30
15543;DHT22;7873;52.230;12.856;2024-03-08T12:14:03;24.70;31.40
15543;DHT22;7873;52.230;12.856;2024-03-08T12:16:31;24.70;31.50
15543;DHT22;7873;52.230;12.856;2024-03-08T12:18:59;24.70;31.50
15543;DHT22;7873;52.230;12.856;2024-03-08T12:21:26;24.60;31.50
15543;DHT22;7873;52.230;12.856;2024-03-08T12:24:04;24.60;31.60
15543;DHT22;7873;52.230;12.856;2024-03-08T12:26:35;24.60;31.60
15543;DHT22;7873;52.230;12.856;2024-03-08T12:29:16;24.60;31.70
15543;DHT22;7873;52.230;12.856;2024-03-08T12:31:45;24.60;31.80
15543;DHT22;7873;52.230;12.856;2024-03-08T12:34:12;24.60;31.90
15543;DHT22;7873;52.230;12.856;2024-03-08T12:36:44;24.50;31.90
15543;DHT22;7873;52.230;12.856;2024-03-08T12:39:13;24.50;32.10
15543;DHT22;7873;52.230;12.856;2024-03-08T12:41:42;24.50;32.10
15543;DHT22;7873;52.230;12.856;2024-03-08T12:44:09;24.50;32.10
15543;DHT22;7873;52.230;12.856;2024-03-08T12:46:36;24.50;32.10
15543;DHT22;7873;52.230;12.856;2024-03-08T12:49:06;24.50;32.10
15543;DHT22;7873;52.230;12.856;2024-03-08T12:51:33;24.50;32.20
15543;DHT22;7873;52.230;12.856;2024-03-08T12:54:00;24.50;32.20
15543;DHT22;7873;52.230;12.856;2024-03-08T12:56:30;24.40;32.30
15543;DHT22;7873;52.230;12.856;2024-03-08T12:59:00;24.40;32.30
15543;DHT22;7873;52.230;12.856;2024-03-08T13:01:28;24.40;32.40
15543;DHT22;7873;52.230;12.856;2024-03-08T13:03:55;24.40;32.30
15543;DHT22;7873;52.230;12.856;2024-03-08T13:06:21;24.40;32.40
15543;DHT22;7873;52.230;12.856;2024-03-08T13:08:49;24.40;32.40
15543;DHT22;7873;52.230;12.856;2024-03-08T13:11:16;24.40;32.40
15543;DHT22;7873;52.230;12.856;2024-03-08T13:13:44;24.40;32.50
15543;DHT22;7873;52.230;12.856;2024-03-08T13:16:12;24.40;32.60
15543;DHT22;7873;52.230;12.856;2024-03-08T13:18:40;24.40;32.60
15543;DHT22;7873;52.230;12.856;2024-03-08T13:21:08;24.40;32.60
15543;DHT22;7873;52.230;12.856;2024-03-08T13:23:36;24.40;32.60
15543;DHT22;7873;52.230;12.856;2024-03-08T13:26:05;24.40;32.60
15543;DHT22;7873;52.230;12.856;2024-03-08T13:28:32;24.40;32.50
15543;DHT22;7873;52.230;12.856;2024-03-08T13:31:02;24.40;32.60
15543;DHT22;7873;52.230;12.856;2024-03-08T13:33:33;24.30;32.70
15543;DHT22;7873;52.230;12.856;2024-03-08T13:36:01;24.30;32.80
15543;DHT22;7873;52.230;12.856;2024-03-08T13:38:28;24.40;32.90
15543;DHT22;7873;52.230;12.856;2024-03-08T13:40:57;24.40;32.70
15543;DHT22;7873;52.230;12.856;2024-03-08T13:43:24;24.30;32.90
15543;DHT22;7873;52.230;12.856;2024-03-08T13:45:53;24.30;33.00
15543;DHT22;7873;52.230;12.856;2024-03-08T13:48:20;24.30;33.00
15543;DHT22;7873;52.230;12.856;2024-03-08T13:50:49;24.40;32.90
15543;DHT22;7873;52.230;12.856;2024-03-08T13:53:16;24.30;32.90
15543;DHT22;7873;52.230;12.856;2024-03-08T13:55:43;24.40;32.50
15543;DHT22;7873;52.230;12.856;2024-03-08T13:58:10;24.40;32.10
15543;DHT22;7873;52.230;12.856;2024-03-08T14:00:39;24.40;32.30
15543;DHT22;7873;52.230;12.856;2024-03-08T14:03:09;24.30;31.60
15543;DHT22;7873;52.230;12.856;2024-03-08T14:05:38;24.30;29.60
15543;DHT22;7873;52.230;12.856;2024-03-08T14:08:07;24.20;29.30
15543;DHT22;7873;52.230;12.856;2024-03-08T14:10:33;24.10;29.60
15543;DHT22;7873;52.230;12.856;2024-03-08T14:13:00;24.10;29.60
15543;DHT22;7873;52.230;12.856;2024-03-08T14:15:28;24.10;29.90
15543;DHT22;7873;52.230;12.856;2024-03-08T14:17:55;24.10;30.50
15543;DHT22;7873;52.230;12.856;2024-03-08T14:20:22;24.10;31.70
15543;DHT22;7873;52.230;12.856;2024-03-08T14:22:50;24.20;31.20
15543;DHT22;7873;52.230;12.856;2024-03-08T14:25:18;24.20;31.30
15543;DHT22;7873;52.230;12.856;2024-03-08T14:27:45;24.20;32.10
15543;DHT22;7873;52.230;12.856;2024-03-08T14:30:12;24.20;31.30
15543;DHT22;7873;52.230;12.856;2024-03-08T14:32:57;24.30;31.50
15543;DHT22;7873;52.230;12.856;2024-03-08T14:35:23;24.30;31.60
15543;DHT22;7873;52.230;12.856;2024-03-08T14:37:50;24.30;31.70
15543;DHT22;7873;52.230;12.856;2024-03-08T14:40:18;24.30;31.80
15543;DHT22;7873;52.230;12.856;2024-03-08T14:42:47;24.30;31.90
15543;DHT22;7873;52.230;12.856;2024-03-08T14:45:15;24.30;31.90
15543;DHT22;7873;52.230;12.856;2024-03-08T14:47:41;24.30;31.90
15543;DHT22;7873;52.230;12.856;2024-03-08T14:50:08;24.40;32.00
15543;DHT22;7873;52.230;12.856;2024-03-08T14:52:35;24.40;32.00
15543;DHT22;7873;52.230;12.856;2024-03-08T14:55:05;24.40;32.00
15543;DHT22;7873;52.230;12.856;2024-03-08T14:57:33;24.40;32.10
15543;DHT22;7873;52.230;12.856;2024-03-08T15:00:00;24.40;32.20
15543;DHT22;7873;52.230;12.856;2024-03-08T15:02:31;24.40;32.20
15543;DHT22;7873;52.230;12.856;2024-03-08T15:04:57;24.40;32.20
15543;DHT22;7873;52.230;12.856;2024-03-08T15:07:25;24.40;32.30
15543;DHT22;7873;52.230;12.856;2024-03-08T15:09:55;24.40;32.40
15543;DHT22;7873;52.230;12.856;2024-03-08T15:12:22;24.40;32.40
15543;DHT22;7873;52.230;12.856;2024-03-08T15:14:52;24.30;32.40
15543;DHT22;7873;52.230;12.856;2024-03-08T15:17:20;24.40;32.60
15543;DHT22;7873;52.230;12.856;2024-03-08T15:19:47;24.30;32.50
15543;DHT22;7873;52.230;12.856;2024-03-08T15:22:14;24.30;32.60
15543;DHT22;7873;52.230;12.856;2024-03-08T15:24:43;24.30;32.60
15543;DHT22;7873;52.230;12.856;2024-03-08T15:27:09;24.30;32.80
15543;DHT22;7873;52.230;12.856;2024-03-08T15:29:36;24.30;32.70
15543;DHT22;7873;52.230;12.856;2024-03-08T15:32:04;24.30;32.80
15543;DHT22;7873;52.230;12.856;2024-03-08T15:34:31;24.30;32.90
15543;DHT22;7873;52.230;12.856;2024-03-08T15:37:03;24.20;32.90